createdAt,value
2023-03-12T00:00:06.970Z,98178.22
2023-03-12T00:02:40.906Z,98177.00
2023-03-12T00:05:14.067Z,98174.52
2023-03-12T00:07:47.148Z,98172.49
2023-03-12T00:10:21.544Z,98172.56
2023-03-12T00:12:55.437Z,98176.12
2023-03-12T00:15:29.079Z,98171.37
2023-03-12T00:18:02.190Z,98174.42
2023-03-12T00:20:35.470Z,98179.68
2023-03-12T00:23:08.420Z,98171.89
2023-03-12T00:25:41.530Z,98161.45
2023-03-12T00:28:16.040Z,98154.09
2023-03-12T00:30:49.525Z,98148.01
2023-03-12T00:33:25.573Z,98127.97
2023-03-12T00:36:02.210Z,98123.11
2023-03-12T00:38:36.161Z,98119.16
2023-03-12T00:41:09.070Z,98126.52
2023-03-12T00:43:42.003Z,98111.17
2023-03-12T00:46:15.561Z,98112.45
2023-03-12T00:48:48.995Z,98107.16
2023-03-12T00:51:22.431Z,98101.42
2023-03-12T00:53:56.202Z,98090.59
2023-03-12T00:56:29.300Z,98099.76
2023-03-12T00:59:03.094Z,98097.98
2023-03-12T01:01:36.215Z,98094.47
2023-03-12T01:04:10.774Z,98090.98
2023-03-12T01:06:46.161Z,98088.37
2023-03-12T01:09:20.852Z,98077.11
2023-03-12T01:11:53.671Z,98079.28
2023-03-12T01:14:26.935Z,98071.89
2023-03-12T01:16:59.974Z,98060.62
2023-03-12T01:19:33.535Z,98055.41
2023-03-12T01:22:06.645Z,98041.09
2023-03-12T01:24:41.570Z,98033.27
2023-03-12T01:27:14.616Z,98035.01
2023-03-12T01:29:47.605Z,98031.96
2023-03-12T01:32:20.652Z,98044.11
2023-03-12T01:34:53.685Z,98044.97
2023-03-12T01:37:27.262Z,98043.20
2023-03-12T01:40:00.043Z,98037.00
2023-03-12T01:42:33.439Z,98037.44
2023-03-12T01:45:08.110Z,98045.66
2023-03-12T01:47:40.983Z,98041.71
2023-03-12T01:50:15.461Z,98033.41
2023-03-12T01:52:48.638Z,98032.87
2023-03-12T01:55:21.617Z,98027.11
2023-03-12T01:57:57.424Z,98027.47
2023-03-12T02:00:30.397Z,98020.04
2023-03-12T02:03:07.995Z,98013.02
2023-03-12T02:06:03.607Z,98014.75
2023-03-12T02:08:44.086Z,98005.19
2023-03-12T02:11:18.554Z,98007.33
2023-03-12T02:13:51.536Z,98016.73
2023-03-12T02:16:25.842Z,98010.11
2023-03-12T02:18:59.844Z,97986.17
2023-03-12T02:21:35.419Z,97987.47
2023-03-12T02:24:24.553Z,97987.04
2023-03-12T02:26:59.164Z,98000.55
2023-03-12T02:29:34.512Z,98004.89
2023-03-12T02:32:09.222Z,98013.19
2023-03-12T02:34:41.245Z,98011.45
2023-03-12T02:37:16.761Z,98023.22
2023-03-12T02:40:03.876Z,98014.48
2023-03-12T02:42:38.504Z,98029.27
2023-03-12T02:45:12.900Z,98019.63
2023-03-12T02:47:46.337Z,98002.28
2023-03-12T02:50:19.204Z,97999.64
2023-03-12T02:52:52.167Z,98007.42
2023-03-12T02:55:25.631Z,98006.08
2023-03-12T02:57:58.473Z,98019.11
2023-03-12T03:00:32.535Z,98023.89
2023-03-12T03:03:06.426Z,98025.23
2023-03-12T03:05:39.601Z,98033.45
2023-03-12T03:08:14.168Z,98032.51
2023-03-12T03:10:47.847Z,98036.06
2023-03-12T03:13:20.791Z,98045.11
2023-03-12T03:15:54.961Z,98040.33
2023-03-12T03:18:31.141Z,98037.33
2023-03-12T03:21:07.584Z,98042.53
2023-03-12T03:23:41.918Z,98036.06
2023-03-12T03:26:15.560Z,98036.93
2023-03-12T03:28:48.702Z,98036.10
2023-03-12T03:31:22.216Z,98027.45
2023-03-12T03:33:55.592Z,98035.70
2023-03-12T03:36:28.652Z,98036.61
2023-03-12T03:39:09.322Z,98039.73
2023-03-12T03:41:43.416Z,98037.16
2023-03-12T03:44:16.752Z,98037.20
2023-03-12T03:46:51.356Z,98039.41
2023-03-12T03:49:25.166Z,98028.98
2023-03-12T03:51:58.715Z,98019.02
2023-03-12T03:54:34.199Z,98020.28
2023-03-12T03:57:08.375Z,98014.20
2023-03-12T03:59:41.453Z,98022.06
2023-03-12T04:02:14.884Z,98024.27
2023-03-12T04:04:48.225Z,98023.84
2023-03-12T04:07:21.561Z,98030.40
2023-03-12T04:09:54.586Z,98025.18
2023-03-12T04:12:29.000Z,98019.53
2023-03-12T04:15:02.485Z,98026.99
2023-03-12T04:17:35.436Z,98023.91
2023-03-12T04:20:11.379Z,98026.92
2023-03-12T04:22:45.299Z,98029.02
2023-03-12T04:25:18.603Z,98040.72
2023-03-12T04:27:52.062Z,98044.12
2023-03-12T04:30:25.653Z,98038.03
2023-03-12T04:32:58.756Z,98041.07
2023-03-12T04:35:32.953Z,98038.83
2023-03-12T04:38:06.228Z,98042.26
2023-03-12T04:40:39.394Z,98040.91
2023-03-12T04:43:12.931Z,98036.06
2023-03-12T04:45:46.076Z,98036.06
2023-03-12T04:48:20.880Z,98036.53
2023-03-12T04:50:55.547Z,98030.84
2023-03-12T04:53:29.256Z,98031.28
2023-03-12T04:56:02.746Z,98033.02
2023-03-12T04:58:36.182Z,98030.84
2023-03-12T05:01:11.305Z,98032.59
2023-03-12T05:03:44.694Z,98036.93
2023-03-12T05:06:17.688Z,98045.66
2023-03-12T05:08:51.331Z,98042.66
2023-03-12T05:11:25.501Z,98052.77
2023-03-12T05:13:59.269Z,98049.72
2023-03-12T05:16:34.128Z,98042.81
2023-03-12T05:19:07.964Z,98055.48
2023-03-12T05:21:43.285Z,98054.19
2023-03-12T05:24:17.332Z,98061.58
2023-03-12T05:26:51.994Z,98062.48
2023-03-12T05:29:26.741Z,98054.66
2023-03-12T05:32:00.706Z,98062.12
2023-03-12T05:34:33.194Z,98063.03
2023-03-12T05:37:06.858Z,98069.98
2023-03-12T05:39:42.864Z,98087.41
2023-03-12T05:42:18.728Z,98082.12
2023-03-12T05:44:52.822Z,98092.55
2023-03-12T05:47:26.568Z,98094.76
2023-03-12T05:49:59.685Z,98096.14
2023-03-12T05:52:34.257Z,98110.09
2023-03-12T05:55:08.764Z,98107.09
2023-03-12T05:57:42.194Z,98109.34
2023-03-12T06:00:16.965Z,98124.23
2023-03-12T06:02:53.296Z,98137.36
2023-03-12T06:05:26.390Z,98120.44
2023-03-12T06:08:00.633Z,98133.48
2023-03-12T06:10:34.004Z,98130.80
2023-03-12T06:13:09.023Z,98118.19
2023-03-12T06:15:42.659Z,98122.97
2023-03-12T06:18:16.273Z,98121.70
2023-03-12T06:20:49.315Z,98126.16
2023-03-12T06:23:22.721Z,98141.38
2023-03-12T06:25:55.745Z,98139.57
2023-03-12T06:28:29.909Z,98142.10
2023-03-12T06:31:03.853Z,98143.72
2023-03-12T06:33:37.397Z,98154.50
2023-03-12T06:36:11.682Z,98156.99
2023-03-12T06:38:44.836Z,98172.60
2023-03-12T06:41:21.161Z,98185.56
2023-03-12T06:43:54.557Z,98189.43
2023-03-12T06:46:28.321Z,98193.73
2023-03-12T06:49:02.980Z,98194.05
2023-03-12T06:51:35.977Z,98206.55
2023-03-12T06:54:09.110Z,98208.69
2023-03-12T06:56:42.562Z,98216.90
2023-03-12T06:59:15.546Z,98225.59
2023-03-12T07:01:49.802Z,98220.81
2023-03-12T07:04:22.855Z,98225.16
2023-03-12T07:06:55.893Z,98231.28
2023-03-12T07:09:32.415Z,98247.32
2023-03-12T07:12:09.934Z,98245.15
2023-03-12T07:14:42.755Z,98254.84
2023-03-12T07:17:17.615Z,98254.97
2023-03-12T07:19:51.105Z,98257.23
2023-03-12T07:22:24.158Z,98261.23
2023-03-12T07:24:58.396Z,98274.88
2023-03-12T07:27:32.179Z,98284.18
2023-03-12T07:30:06.095Z,98288.27
2023-03-12T07:32:40.021Z,98294.65
2023-03-12T07:35:12.932Z,98301.90
2023-03-12T07:37:46.493Z,98319.94
2023-03-12T07:40:19.566Z,98336.98
2023-03-12T07:42:53.402Z,98336.16
2023-03-12T07:45:26.793Z,98335.30
2023-03-12T07:48:00.296Z,98351.47
2023-03-12T07:50:33.913Z,98350.72
2023-03-12T07:53:08.010Z,98365.69
2023-03-12T07:55:41.557Z,98371.55
2023-03-12T07:58:16.126Z,98376.06
2023-03-12T08:00:49.810Z,98391.82
2023-03-12T08:03:23.985Z,98394.47
2023-03-12T08:06:03.003Z,98400.29
2023-03-12T08:08:38.143Z,98396.02
2023-03-12T08:11:11.582Z,98414.66
2023-03-12T08:13:46.585Z,98410.09
2023-03-12T08:16:19.771Z,98412.98
2023-03-12T08:18:53.197Z,98405.97
2023-03-12T08:21:26.150Z,98414.37
2023-03-12T08:23:59.160Z,98404.92
2023-03-12T08:26:32.656Z,98392.77
2023-03-12T08:29:05.791Z,98405.64
2023-03-12T08:31:41.856Z,98410.74
2023-03-12T08:34:14.242Z,98410.98
2023-03-12T08:36:47.169Z,98422.55
2023-03-12T08:39:20.640Z,98438.86
2023-03-12T08:41:55.614Z,98439.80
2023-03-12T08:44:27.765Z,98447.65
2023-03-12T08:47:00.459Z,98448.05
2023-03-12T08:49:33.545Z,98473.27
2023-03-12T08:52:06.943Z,98477.11
2023-03-12T08:54:39.924Z,98480.00
2023-03-12T08:57:13.457Z,98488.50
2023-03-12T08:59:46.538Z,98492.26
2023-03-12T09:02:20.211Z,98487.38
2023-03-12T09:04:53.696Z,98494.27
2023-03-12T09:07:26.897Z,98500.16
2023-03-12T09:10:01.411Z,98505.72
2023-03-12T09:12:34.853Z,98498.84
2023-03-12T09:15:09.644Z,98491.58
2023-03-12T09:17:42.871Z,98498.34
2023-03-12T09:20:16.763Z,98495.12
2023-03-12T09:22:50.052Z,98494.49
2023-03-12T09:25:23.557Z,98504.59
2023-03-12T09:27:56.696Z,98499.88
2023-03-12T09:30:30.819Z,98511.38
2023-03-12T09:33:03.660Z,98508.92
2023-03-12T09:35:37.622Z,98522.03
2023-03-12T09:38:16.301Z,98526.66
2023-03-12T09:40:50.222Z,98530.85
2023-03-12T09:43:35.084Z,98534.61
2023-03-12T09:46:19.004Z,98541.84
2023-03-12T09:48:54.077Z,98542.50
2023-03-12T09:51:42.561Z,98550.47
2023-03-12T09:54:41.077Z,98557.30
2023-03-12T09:57:18.479Z,98561.08
2023-03-12T09:59:52.904Z,98563.47
2023-03-12T10:02:34.890Z,98545.56
2023-03-12T10:05:35.740Z,98554.63
2023-03-12T10:08:30.734Z,98558.94
2023-03-12T10:11:32.659Z,98561.03
2023-03-12T10:14:23.856Z,98560.04
2023-03-12T10:17:12.286Z,98546.41
2023-03-12T10:20:16.268Z,98555.13
2023-03-12T10:22:57.262Z,98549.50
2023-03-12T10:25:43.499Z,98554.34
2023-03-12T10:28:34.372Z,98552.68
2023-03-12T10:31:20.777Z,98549.88
2023-03-12T10:34:03.419Z,98551.31
2023-03-12T10:36:40.710Z,98551.52
2023-03-12T10:39:20.811Z,98561.73
2023-03-12T10:41:54.312Z,98561.89
2023-03-12T10:44:28.317Z,98569.47
2023-03-12T10:47:22.787Z,98576.91
2023-03-12T10:49:56.077Z,98580.88
2023-03-12T10:52:28.978Z,98599.11
2023-03-12T10:55:03.583Z,98608.49
2023-03-12T10:57:43.695Z,98630.59
2023-03-12T11:00:27.532Z,98632.17
2023-03-12T11:03:09.688Z,98635.49
2023-03-12T11:05:52.302Z,98631.14
2023-03-12T11:08:34.674Z,98638.59
2023-03-12T11:11:08.551Z,98644.64
2023-03-12T11:13:43.395Z,98656.62
2023-03-12T11:16:31.445Z,98663.59
2023-03-12T11:19:05.456Z,98666.00
2023-03-12T11:21:40.648Z,98677.16
2023-03-12T11:24:16.468Z,98676.72
2023-03-12T11:27:04.195Z,98682.91
2023-03-12T11:29:43.719Z,98683.42
2023-03-12T11:32:21.512Z,98684.97
2023-03-12T11:34:54.878Z,98688.19
2023-03-12T11:37:47.339Z,98701.72
2023-03-12T11:40:56.536Z,98696.62
2023-03-12T11:44:05.941Z,98708.53
2023-03-12T11:47:06.719Z,98714.45
2023-03-12T11:49:57.114Z,98725.14
2023-03-12T11:53:00.578Z,98733.28
2023-03-12T11:55:55.604Z,98732.25
2023-03-12T11:58:48.349Z,98729.27
2023-03-12T12:01:44.202Z,98743.77
2023-03-12T12:04:46.781Z,98749.15
2023-03-12T12:07:56.334Z,98744.66
2023-03-12T12:11:01.310Z,98740.95
2023-03-12T12:14:12.147Z,98744.05
2023-03-12T12:16:58.461Z,98754.70
2023-03-12T12:19:54.740Z,98750.52
2023-03-12T12:22:55.219Z,98756.77
2023-03-12T12:25:42.200Z,98768.62
2023-03-12T12:28:32.604Z,98787.69
2023-03-12T12:31:31.947Z,98772.69
2023-03-12T12:34:31.595Z,98778.39
2023-03-12T12:37:26.145Z,98787.70
2023-03-12T12:40:19.030Z,98800.70
2023-03-12T12:43:00.356Z,98805.69
2023-03-12T12:45:33.746Z,98813.03
2023-03-12T12:48:27.875Z,98825.91
2023-03-12T12:51:02.493Z,98832.64
2023-03-12T12:53:49.966Z,98838.88
2023-03-12T12:56:54.254Z,98858.22
2023-03-12T12:59:49.864Z,98861.78
2023-03-12T13:02:33.242Z,98866.66
2023-03-12T13:05:06.657Z,98869.00
2023-03-12T13:07:39.823Z,98869.33
2023-03-12T13:10:41.879Z,98876.70
2023-03-12T13:13:26.245Z,98893.11
2023-03-12T13:16:40.041Z,98902.35
2023-03-12T13:19:21.704Z,98893.17
2023-03-12T13:22:08.861Z,98905.22
2023-03-12T13:24:50.807Z,98919.48
2023-03-12T13:27:27.654Z,98911.54
2023-03-12T13:30:02.346Z,98918.09
2023-03-12T13:32:42.040Z,98936.47
2023-03-12T13:35:22.779Z,98933.48
2023-03-12T13:38:02.993Z,98935.14
2023-03-12T13:41:00.056Z,98941.71
2023-03-12T13:43:44.496Z,98946.66
2023-03-12T13:46:40.514Z,98953.03
2023-03-12T13:49:17.038Z,98960.36
2023-03-12T13:52:06.132Z,98965.59
2023-03-12T13:54:42.814Z,98970.73
2023-03-12T13:57:29.401Z,98983.20
2023-03-12T14:00:05.621Z,98984.94
2023-03-12T14:02:44.401Z,98987.06
2023-03-12T14:05:18.308Z,98994.16
2023-03-12T14:08:10.142Z,99004.77
2023-03-12T14:11:06.872Z,98998.11
2023-03-12T14:14:30.778Z,99009.53
2023-03-12T14:17:06.184Z,99012.16
2023-03-12T14:19:40.990Z,99017.09
2023-03-12T14:22:16.059Z,99017.75
2023-03-12T14:24:58.870Z,99025.81
2023-03-12T14:27:34.689Z,99031.73
2023-03-12T14:30:33.876Z,99032.19
2023-03-12T14:33:07.531Z,99031.69
2023-03-12T14:35:52.848Z,99042.50
2023-03-12T14:38:30.161Z,99047.87
2023-03-12T14:41:11.256Z,99053.02
2023-03-12T14:43:46.847Z,99061.48
2023-03-12T14:46:25.504Z,99061.33
2023-03-12T14:48:59.530Z,99064.48
2023-03-12T14:51:35.111Z,99074.45
2023-03-12T14:54:11.453Z,99065.55
2023-03-12T14:56:46.632Z,99090.04
2023-03-12T14:59:37.143Z,99086.14
2023-03-12T15:02:19.798Z,99090.75
2023-03-12T15:04:57.800Z,99089.38
2023-03-12T15:07:35.232Z,99093.23
2023-03-12T15:10:25.042Z,99096.97
2023-03-12T15:13:01.690Z,99102.65
2023-03-12T15:15:42.579Z,99109.09
2023-03-12T15:18:22.432Z,99111.30
2023-03-12T15:20:57.517Z,99107.36
2023-03-12T15:23:34.203Z,99119.27
2023-03-12T15:26:20.954Z,99118.92
2023-03-12T15:29:20.759Z,99128.33
2023-03-12T15:31:57.579Z,99132.37
2023-03-12T15:34:38.074Z,99145.08
2023-03-12T15:37:37.624Z,99147.87
2023-03-12T15:40:31.193Z,99166.75
2023-03-12T15:43:06.365Z,99164.45
2023-03-12T15:45:41.456Z,99182.45
2023-03-12T15:48:30.164Z,99179.27
2023-03-12T15:51:03.236Z,99187.05
2023-03-12T15:53:37.123Z,99188.66
2023-03-12T15:56:17.677Z,99193.66
2023-03-12T15:59:11.836Z,99209.69
2023-03-12T16:01:50.992Z,99222.78
2023-03-12T16:04:25.128Z,99226.67
2023-03-12T16:06:58.072Z,99227.92
2023-03-12T16:09:33.105Z,99236.75
2023-03-12T16:12:07.325Z,99236.97
2023-03-12T16:14:41.060Z,99248.81
2023-03-12T16:17:18.012Z,99257.28
2023-03-12T16:19:51.107Z,99255.19
2023-03-12T16:22:24.319Z,99257.02
2023-03-12T16:24:57.970Z,99274.17
2023-03-12T16:27:32.838Z,99268.59
2023-03-12T16:30:10.898Z,99274.11
2023-03-12T16:32:44.076Z,99283.58
2023-03-12T16:35:20.520Z,99288.15
2023-03-12T16:37:53.762Z,99293.54
2023-03-12T16:40:33.641Z,99305.58
2023-03-12T16:43:06.055Z,99304.40
2023-03-12T16:45:39.256Z,99313.55
2023-03-12T16:48:15.928Z,99318.13
2023-03-12T16:50:54.882Z,99322.80
2023-03-12T16:53:28.619Z,99328.39
2023-03-12T16:56:02.811Z,99335.81
2023-03-12T16:58:36.502Z,99344.19
2023-03-12T17:01:15.639Z,99337.11
2023-03-12T17:03:50.472Z,99346.46
2023-03-12T17:06:29.528Z,99359.70
2023-03-12T17:09:02.449Z,99363.69
2023-03-12T17:11:35.813Z,99376.61
2023-03-12T17:14:22.265Z,99360.69
2023-03-12T17:16:55.992Z,99363.98
2023-03-12T17:19:29.462Z,99376.41
2023-03-12T17:22:03.915Z,99379.78
2023-03-12T17:24:39.466Z,99382.97
2023-03-12T17:27:12.673Z,99391.87
2023-03-12T17:29:45.797Z,99393.36
2023-03-12T17:32:19.762Z,99410.88
2023-03-12T17:35:01.053Z,99400.03
2023-03-12T17:37:36.005Z,99408.86
2023-03-12T17:40:11.207Z,99419.09
2023-03-12T17:42:44.974Z,99423.06
2023-03-12T17:45:18.512Z,99443.13
2023-03-12T17:47:51.323Z,99433.45
2023-03-12T17:50:24.752Z,99435.34
2023-03-12T17:52:57.480Z,99447.75
2023-03-12T17:55:30.254Z,99451.52
2023-03-12T17:58:03.623Z,99466.03
2023-03-12T18:00:38.234Z,99464.94
2023-03-12T18:03:10.525Z,99477.34
2023-03-12T18:05:43.301Z,99481.22
2023-03-12T18:08:17.084Z,99481.41
2023-03-12T18:10:50.920Z,99491.44
2023-03-12T18:13:24.397Z,99488.23
2023-03-12T18:15:59.656Z,99505.95
2023-03-12T18:18:32.571Z,99503.63
2023-03-12T18:21:06.127Z,99510.49
2023-03-12T18:23:39.423Z,99521.61
2023-03-12T18:26:13.062Z,99526.29
2023-03-12T18:28:45.946Z,99520.83
2023-03-12T18:31:18.907Z,99524.30
2023-03-12T18:33:52.612Z,99529.66
2023-03-12T18:36:25.667Z,99533.12
2023-03-12T18:38:59.680Z,99536.11
2023-03-12T18:41:33.220Z,99546.05
2023-03-12T18:44:06.897Z,99548.03
2023-03-12T18:46:39.902Z,99549.44
2023-03-12T18:49:15.558Z,99554.60
2023-03-12T18:51:51.338Z,99563.46
2023-03-12T18:54:25.456Z,99565.75
2023-03-12T18:56:58.763Z,99563.06
2023-03-12T18:59:32.482Z,99584.87
2023-03-12T19:02:05.646Z,99571.24
2023-03-12T19:04:38.643Z,99574.48
2023-03-12T19:07:12.242Z,99583.82
2023-03-12T19:09:45.950Z,99599.69
2023-03-12T19:12:19.091Z,99588.06
2023-03-12T19:14:51.943Z,99603.56
2023-03-12T19:17:24.829Z,99604.27
2023-03-12T19:19:57.858Z,99603.20
2023-03-12T19:22:30.501Z,99616.34
2023-03-12T19:25:03.997Z,99616.11
2023-03-12T19:27:37.294Z,99628.39
2023-03-12T19:30:11.766Z,99631.30
2023-03-12T19:32:44.945Z,99626.59
2023-03-12T19:35:18.725Z,99629.06
2023-03-12T19:37:51.864Z,99651.07
2023-03-12T19:40:24.869Z,99643.86
2023-03-12T19:42:57.621Z,99659.13
2023-03-12T19:45:30.570Z,99654.73
2023-03-12T19:48:04.268Z,99660.75
2023-03-12T19:50:37.086Z,99660.29
2023-03-12T19:53:11.040Z,99671.69
2023-03-12T19:55:44.004Z,99673.42
2023-03-12T19:58:17.698Z,99684.16
2023-03-12T20:00:50.647Z,99680.86
2023-03-12T20:03:23.552Z,99678.16
2023-03-12T20:05:57.225Z,99691.31
2023-03-12T20:08:33.375Z,99685.66
2023-03-12T20:11:10.397Z,99696.87
2023-03-12T20:13:43.291Z,99706.14
2023-03-12T20:16:17.139Z,99706.27
2023-03-12T20:18:51.717Z,99708.77
2023-03-12T20:21:24.631Z,99714.73
2023-03-12T20:24:00.284Z,99715.66
2023-03-12T20:26:33.792Z,99727.43
2023-03-12T20:29:07.874Z,99725.25
2023-03-12T20:31:43.318Z,99744.23
2023-03-12T20:34:16.358Z,99740.24
2023-03-12T20:36:49.852Z,99737.70
2023-03-12T20:39:23.022Z,99738.49
2023-03-12T20:41:56.269Z,99746.27
2023-03-12T20:44:28.901Z,99747.70
2023-03-12T20:47:01.966Z,99742.17
2023-03-12T20:49:35.875Z,99755.98
2023-03-12T20:52:08.703Z,99755.20
2023-03-12T20:54:42.251Z,99751.36
2023-03-12T20:57:15.166Z,99754.20
2023-03-12T20:59:47.844Z,99752.41
2023-03-12T21:02:21.000Z,99759.13
2023-03-12T21:04:54.463Z,99758.48
2023-03-12T21:07:28.216Z,99762.62
2023-03-12T21:10:01.016Z,99766.09
2023-03-12T21:12:34.691Z,99764.80
2023-03-12T21:15:10.177Z,99768.44
2023-03-12T21:17:43.609Z,99765.36
2023-03-12T21:20:19.773Z,99773.21
2023-03-12T21:22:53.038Z,99777.34
2023-03-12T21:25:25.901Z,99777.71
2023-03-12T21:28:00.223Z,99787.78
2023-03-12T21:30:33.547Z,99789.17
2023-03-12T21:33:07.708Z,99792.15
2023-03-12T21:35:46.928Z,99799.11
2023-03-12T21:38:21.424Z,99793.04
2023-03-12T21:40:54.544Z,99796.67
2023-03-12T21:43:30.120Z,99813.41
2023-03-12T21:46:12.888Z,99810.84
2023-03-12T21:48:48.129Z,99812.38
2023-03-12T21:51:22.894Z,99823.07
2023-03-12T21:53:57.937Z,99819.70
2023-03-12T21:56:31.194Z,99825.39
2023-03-12T21:59:04.196Z,99833.22
2023-03-12T22:01:37.444Z,99840.05
2023-03-12T22:04:10.389Z,99832.47
2023-03-12T22:06:43.473Z,99846.38
2023-03-12T22:09:17.003Z,99842.61
2023-03-12T22:11:51.081Z,99846.08
2023-03-12T22:14:25.474Z,99848.02
2023-03-12T22:16:58.291Z,99848.52
2023-03-12T22:19:31.059Z,99844.92
2023-03-12T22:22:04.403Z,99845.31
2023-03-12T22:24:37.899Z,99846.83
2023-03-12T22:27:10.705Z,99851.48
2023-03-12T22:29:43.978Z,99862.14
2023-03-12T22:32:16.632Z,99866.53
2023-03-12T22:34:50.540Z,99875.27
2023-03-12T22:37:23.217Z,99880.51
2023-03-12T22:39:57.906Z,99878.73
2023-03-12T22:42:30.876Z,99872.28
2023-03-12T22:45:04.043Z,99881.11
2023-03-12T22:47:37.654Z,99885.63
2023-03-12T22:50:11.929Z,99889.84
2023-03-12T22:52:45.282Z,99902.22
2023-03-12T22:55:18.486Z,99908.52
2023-03-12T22:57:51.162Z,99910.55
2023-03-12T23:00:24.177Z,99911.56
2023-03-12T23:02:56.992Z,99918.66
2023-03-12T23:05:29.902Z,99924.16
2023-03-12T23:08:02.569Z,99933.42
2023-03-12T23:10:36.011Z,99932.52
2023-03-12T23:13:09.738Z,99929.28
2023-03-12T23:15:43.094Z,99932.87
2023-03-12T23:18:16.983Z,99932.87
2023-03-12T23:20:55.509Z,99935.78
2023-03-12T23:23:29.255Z,99938.86
2023-03-12T23:26:03.655Z,99942.47
2023-03-12T23:28:36.574Z,99942.47
2023-03-12T23:31:12.166Z,99942.72
2023-03-12T23:33:45.756Z,99942.58
2023-03-12T23:36:23.840Z,99941.69
2023-03-12T23:38:56.877Z,99948.34
2023-03-12T23:41:31.058Z,99944.32
2023-03-12T23:44:05.241Z,99946.48
2023-03-12T23:46:38.759Z,99950.45
2023-03-12T23:49:13.539Z,99949.02
2023-03-12T23:51:47.734Z,99950.16
2023-03-12T23:54:20.660Z,99955.56
2023-03-12T23:56:53.717Z,99957.06
2023-03-12T23:59:26.388Z,99961.31
